Time;durP1;ratioP1;P1;durP2;ratioP2;P2;SDS_P1;SDS_P2;PMS_P1;PMS_P2;Temp;Humidity;BMP_temperature;BMP_pressure;BME280_temperature;BME280_humidity;BME280_pressure;Samples;Min_cycle;Max_cycle;Signal;HPM_P1;HPM_P2
2021/07/30 00:02:14;;;;;;;18.58;5.10;;;;;;;;;;4997690;28;20133;-62
2021/07/30 00:04:39;;;;;;;23.05;5.30;;;;;;;;;;4997188;28;20039;-62
2021/07/30 00:07:08;;;;;;;10.50;4.28;;;;;;;;;;4995609;28;21031;-62
2021/07/30 00:09:33;;;;;;;24.10;5.82;;;;;;;;;;5014539;28;20630;-62
2021/07/30 00:12:01;;;;;;;15.90;5.47;;;;;;;;;;4997836;28;20545;-62
2021/07/30 00:14:29;;;;;;;19.27;5.25;;;;;;;;;;4998398;28;20030;-61
2021/07/30 00:16:55;;;;;;;15.13;5.70;;;;;;;;;;4996855;28;20034;-61
2021/07/30 00:19:20;;;;;;;18.35;4.85;;;;;;;;;;4998438;28;20540;-61
2021/07/30 00:21:50;;;;;;;12.07;5.68;;;;;;;;;;4994994;28;20037;-62
2021/07/30 00:24:16;;;;;;;13.63;5.25;;;;;;;;;;4994974;28;20033;-62
2021/07/30 00:26:42;;;;;;;10.05;5.00;;;;;;;;;;4995699;28;20049;-62
2021/07/30 00:29:07;;;;;;;17.42;5.63;;;;;;;;;;4999811;28;20021;-62
2021/07/30 00:31:33;;;;;;;19.02;5.53;;;;;;;;;;4995169;28;20552;-61
2021/07/30 00:33:59;;;;;;;15.95;5.78;;;;;;;;;;5004333;28;20076;-62
2021/07/30 00:36:24;;;;;;;16.65;4.95;;;;;;;;;;4995186;28;20563;-62
2021/07/30 00:38:50;;;;;;;24.13;5.97;;;;;;;;;;4985271;28;20544;-62
2021/07/30 00:41:16;;;;;;;20.40;5.93;;;;;;;;;;4996979;28;20139;-62
2021/07/30 00:43:42;;;;;;;14.98;5.68;;;;;;;;;;4998456;28;20104;-62
2021/07/30 00:46:07;;;;;;;20.63;6.05;;;;;;;;;;4979767;28;20034;-62
2021/07/30 00:48:34;;;;;;;17.48;5.32;;;;;;;;;;4987010;28;20061;-63
2021/07/30 00:51:00;;;;;;;24.92;6.75;;;;;;;;;;5019063;28;20040;-62
2021/07/30 00:53:26;;;;;;;11.43;5.75;;;;;;;;;;5035487;28;20025;-62
2021/07/30 00:55:57;;;;;;;16.33;5.78;;;;;;;;;;5037696;28;20853;-61
2021/07/30 00:58:23;;;;;;;13.15;5.53;;;;;;;;;;5039669;28;21845;-62
2021/07/30 01:00:49;;;;;;;12.98;5.35;;;;;;;;;;5022862;28;20179;-62
2021/07/30 01:03:17;;;;;;;12.25;5.32;;;;;;;;;;5004634;28;20056;-62
2021/07/30 01:05:45;;;;;;;27.85;6.40;;;;;;;;;;5017448;28;20126;-62
2021/07/30 01:08:11;;;;;;;21.45;6.40;;;;;;;;;;5035627;28;20064;-62
2021/07/30 01:10:36;;;;;;;18.73;5.60;;;;;;;;;;5035842;28;20140;-62
2021/07/30 01:13:02;;;;;;;19.65;6.35;;;;;;;;;;5027664;28;20047;-62
2021/07/30 01:15:28;;;;;;;19.50;5.95;;;;;;;;;;5036126;28;20021;-62
2021/07/30 01:17:54;;;;;;;18.08;6.20;;;;;;;;;;5038130;28;22255;-62
2021/07/30 01:20:24;;;;;;;24.27;6.82;;;;;;;;;;5036053;28;20025;-62
2021/07/30 01:22:53;;;;;;;17.25;7.40;;;;;;;;;;5017275;28;20052;-62
2021/07/30 01:25:20;;;;;;;18.45;6.35;;;;;;;;;;5036974;28;20035;-62
2021/07/30 01:27:46;;;;;;;18.42;6.93;;;;;;;;;;5000923;28;22109;-61
2021/07/30 01:30:13;;;;;;;21.70;7.07;;;;;;;;;;5041348;28;20033;-62
2021/07/30 01:32:38;;;;;;;21.58;6.90;;;;;;;;;;5036447;28;20040;-61
2021/07/30 01:35:06;;;;;;;19.85;7.05;;;;;;;;;;5035964;28;20029;-61
2021/07/30 01:37:32;;;;;;;27.70;6.93;;;;;;;;;;5016983;28;20037;-62
2021/07/30 01:40:02;;;;;;;19.55;6.30;;;;;;;;;;5034695;28;20032;-62
2021/07/30 01:42:28;;;;;;;14.40;6.82;;;;;;;;;;5018871;28;20110;-61
2021/07/30 01:44:54;;;;;;;19.98;7.40;;;;;;;;;;5036034;28;20029;-61
2021/07/30 01:47:20;;;;;;;21.65;6.97;;;;;;;;;;5024521;28;20052;-61
2021/07/30 01:49:49;;;;;;;25.02;7.18;;;;;;;;;;5017648;28;20776;-62
2021/07/30 01:52:15;;;;;;;22.95;7.45;;;;;;;;;;5034989;28;20025;-62
2021/07/30 01:54:40;;;;;;;20.48;7.22;;;;;;;;;;5004451;28;20090;-62
2021/07/30 01:57:06;;;;;;;25.48;7.18;;;;;;;;;;5035124;28;20126;-61
2021/07/30 01:59:31;;;;;;;17.00;6.65;;;;;;;;;;5026510;28;20071;-62
2021/07/30 02:01:57;;;;;;;17.15;7.15;;;;;;;;;;5025458;28;22078;-61
2021/07/30 02:04:23;;;;;;;21.80;7.57;;;;;;;;;;5035977;28;20060;-62
2021/07/30 02:06:48;;;;;;;18.48;7.93;;;;;;;;;;5036748;28;21347;-62
2021/07/30 02:09:14;;;;;;;23.15;8.23;;;;;;;;;;5036609;28;20107;-62
2021/07/30 02:11:43;;;;;;;23.30;7.00;;;;;;;;;;5008469;28;20115;-61
2021/07/30 02:14:15;;;;;;;24.00;8.57;;;;;;;;;;5019040;28;20127;-62
2021/07/30 02:16:43;;;;;;;24.05;7.90;;;;;;;;;;5018394;28;20041;-62
2021/07/30 02:19:09;;;;;;;18.40;7.85;;;;;;;;;;5019251;28;20539;-62
2021/07/30 02:21:35;;;;;;;24.17;8.23;;;;;;;;;;5023131;28;20110;-62
2021/07/30 02:24:03;;;;;;;20.42;9.10;;;;;;;;;;5025121;28;20037;-61
2021/07/30 02:26:29;;;;;;;23.63;8.50;;;;;;;;;;5003169;28;20051;-62
2021/07/30 02:28:55;;;;;;;23.95;8.20;;;;;;;;;;5039747;28;20122;-62
2021/07/30 02:31:21;;;;;;;22.98;8.25;;;;;;;;;;5006119;28;20036;-62
2021/07/30 02:33:46;;;;;;;21.40;8.10;;;;;;;;;;5039665;28;20020;-61
2021/07/30 02:36:12;;;;;;;25.35;9.07;;;;;;;;;;5019729;28;20025;-62
2021/07/30 02:38:40;;;;;;;19.55;7.35;;;;;;;;;;5009103;28;20079;-62
2021/07/30 02:41:07;;;;;;;20.85;9.13;;;;;;;;;;5037737;28;20036;-62
2021/07/30 02:43:35;;;;;;;25.17;7.97;;;;;;;;;;5006959;28;20136;-62
2021/07/30 02:46:03;;;;;;;21.02;8.73;;;;;;;;;;5023236;28;20025;-62
2021/07/30 02:48:31;;;;;;;23.98;8.27;;;;;;;;;;5024838;28;20055;-62
2021/07/30 02:50:56;;;;;;;17.85;8.43;;;;;;;;;;5037191;28;20055;-62
2021/07/30 02:53:22;;;;;;;20.23;7.90;;;;;;;;;;4995545;28;20041;-61
2021/07/30 02:56:21;;;;;;;26.05;8.80;;;;;;;;;;5038847;28;20032;-62
2021/07/30 02:58:50;;;;;;;23.50;8.45;;;;;;;;;;5026697;28;20045;-62
2021/07/30 03:01:16;;;;;;;21.40;8.68;;;;;;;;;;5021928;28;20445;-61
2021/07/30 03:03:41;;;;;;;22.15;9.35;;;;;;;;;;5022914;28;20027;-61
2021/07/30 03:06:07;;;;;;;26.23;8.68;;;;;;;;;;5027430;28;20029;-61
2021/07/30 03:08:32;;;;;;;20.02;8.10;;;;;;;;;;5037543;28;20134;-62
2021/07/30 03:11:01;;;;;;;32.30;8.38;;;;;;;;;;5020702;28;20017;-61
2021/07/30 03:13:29;;;;;;;31.42;9.10;;;;;;;;;;5005710;28;20029;-61
2021/07/30 03:15:57;;;;;;;27.10;9.02;;;;;;;;;;4995924;28;20037;-61
2021/07/30 03:18:23;;;;;;;23.60;9.85;;;;;;;;;;5026209;28;20383;-61
2021/07/30 03:20:48;;;;;;;25.77;9.07;;;;;;;;;;5035758;28;20021;-61
2021/07/30 03:23:14;;;;;;;23.77;7.88;;;;;;;;;;5038594;28;20044;-61
2021/07/30 03:25:42;;;;;;;15.70;8.10;;;;;;;;;;5026468;28;20111;-61
2021/07/30 03:28:07;;;;;;;27.38;8.85;;;;;;;;;;5021473;28;20040;-61
2021/07/30 03:30:34;;;;;;;28.38;8.68;;;;;;;;;;5020541;28;20137;-61
2021/07/30 03:33:03;;;;;;;30.33;8.82;;;;;;;;;;5037865;28;20095;-62
2021/07/30 03:35:31;;;;;;;20.05;8.68;;;;;;;;;;5018132;28;20029;-61
2021/07/30 03:37:57;;;;;;;20.30;8.48;;;;;;;;;;5019718;28;20059;-62
2021/07/30 03:40:23;;;;;;;29.60;9.35;;;;;;;;;;5037195;28;20111;-62
2021/07/30 03:42:48;;;;;;;20.65;8.43;;;;;;;;;;5037808;28;21372;-61
2021/07/30 03:45:16;;;;;;;17.48;7.78;;;;;;;;;;5018236;28;20028;-61
2021/07/30 03:47:44;;;;;;;17.15;8.27;;;;;;;;;;5010515;28;20574;-61
2021/07/30 03:50:10;;;;;;;21.42;8.40;;;;;;;;;;5022664;28;20041;-62
2021/07/30 03:52:35;;;;;;;23.00;8.23;;;;;;;;;;4997205;28;20593;-62
2021/07/30 03:55:00;;;;;;;19.35;8.05;;;;;;;;;;4996770;28;20572;-62
2021/07/30 03:57:31;;;;;;;21.20;8.95;;;;;;;;;;4981363;28;20056;-62
2021/07/30 03:59:56;;;;;;;23.17;8.30;;;;;;;;;;5003238;28;20069;-63
2021/07/30 04:02:22;;;;;;;23.00;8.23;;;;;;;;;;5005336;28;20619;-61
2021/07/30 04:04:48;;;;;;;27.63;8.40;;;;;;;;;;4998225;28;20030;-62
2021/07/30 04:07:13;;;;;;;24.73;8.18;;;;;;;;;;4995937;28;20045;-61
2021/07/30 04:09:41;;;;;;;32.50;7.72;;;;;;;;;;4983297;28;20030;-62
2021/07/30 04:12:11;;;;;;;23.25;7.47;;;;;;;;;;4996264;28;20704;-61
2021/07/30 04:14:37;;;;;;;20.02;6.85;;;;;;;;;;4996490;28;20042;-62
2021/07/30 04:17:03;;;;;;;32.30;7.85;;;;;;;;;;5010052;28;20045;-62
2021/07/30 04:19:29;;;;;;;18.60;7.60;;;;;;;;;;5004336;28;20153;-62
2021/07/30 04:21:54;;;;;;;20.17;6.82;;;;;;;;;;5002573;28;20040;-63
2021/07/30 04:24:22;;;;;;;17.65;7.30;;;;;;;;;;4997803;28;20029;-63
2021/07/30 04:26:47;;;;;;;24.77;7.47;;;;;;;;;;5000671;28;20034;-63
2021/07/30 04:29:15;;;;;;;16.95;7.10;;;;;;;;;;4998660;28;21324;-62
2021/07/30 04:31:41;;;;;;;13.77;7.50;;;;;;;;;;5216914;22;20064;-88
2021/07/30 04:34:07;;;;;;;23.83;7.93;;;;;;;;;;5045742;28;20057;-88
2021/07/30 04:36:32;;;;;;;18.50;6.93;;;;;;;;;;5028422;28;20064;-86
2021/07/30 04:38:58;;;;;;;16.85;6.75;;;;;;;;;;5029950;28;20046;-87
2021/07/30 04:41:24;;;;;;;21.48;7.13;;;;;;;;;;5014179;28;20033;-88
2021/07/30 04:43:50;;;;;;;22.27;7.43;;;;;;;;;;4995496;28;20380;-91
2021/07/30 04:46:20;;;;;;;16.38;6.47;;;;;;;;;;5030979;28;20049;-90
2021/07/30 04:48:45;;;;;;;18.60;7.40;;;;;;;;;;5032395;28;20030;-89
2021/07/30 04:51:11;;;;;;;17.63;6.15;;;;;;;;;;5036463;28;20085;-87
2021/07/30 04:53:37;;;;;;;12.60;6.07;;;;;;;;;;5045986;28;20044;-87
2021/07/30 04:56:03;;;;;;;21.60;7.30;;;;;;;;;;5049417;28;20017;-88
2021/07/30 04:58:28;;;;;;;16.48;6.82;;;;;;;;;;5029630;28;20112;-88
2021/07/30 05:00:55;;;;;;;30.65;6.80;;;;;;;;;;5010314;28;20014;-91
2021/07/30 05:03:21;;;;;;;12.52;6.65;;;;;;;;;;5037371;28;20079;-87
2021/07/30 05:05:48;;;;;;;22.83;7.38;;;;;;;;;;5047936;28;20026;-87
2021/07/30 05:08:14;;;;;;;13.98;6.28;;;;;;;;;;5047136;28;20064;-87
2021/07/30 05:10:40;;;;;;;13.50;5.82;;;;;;;;;;5040780;28;20013;-88
2021/07/30 05:13:06;;;;;;;19.13;6.32;;;;;;;;;;5022877;28;20435;-87
2021/07/30 05:15:31;;;;;;;14.35;5.03;;;;;;;;;;5035830;28;20039;-89
2021/07/30 05:17:57;;;;;;;10.68;5.32;;;;;;;;;;5000653;28;20137;-88
2021/07/30 05:20:23;;;;;;;22.05;6.38;;;;;;;;;;5013935;28;20030;-91
2021/07/30 05:22:48;;;;;;;13.18;5.05;;;;;;;;;;5002400;28;20332;-88
2021/07/30 05:25:14;;;;;;;12.80;4.78;;;;;;;;;;5037623;28;20029;-87
2021/07/30 05:27:40;;;;;;;15.60;4.97;;;;;;;;;;5017220;28;20072;-87
2021/07/30 05:30:11;;;;;;;19.60;5.50;;;;;;;;;;5032240;28;20432;-87
2021/07/30 05:33:00;;;;;;;10.90;4.88;;;;;;;;;;5029050;28;20046;-88
2021/07/30 05:35:26;;;;;;;13.65;4.80;;;;;;;;;;5015709;28;20174;-86
2021/07/30 05:37:51;;;;;;;12.52;4.63;;;;;;;;;;5015328;28;20018;-88
2021/07/30 05:40:25;;;;;;;12.52;4.70;;;;;;;;;;5030083;28;20479;-88
2021/07/30 05:42:51;;;;;;;8.65;4.40;;;;;;;;;;5029395;28;20092;-87
2021/07/30 05:45:16;;;;;;;9.25;4.40;;;;;;;;;;5025271;28;20049;-85
2021/07/30 05:47:50;;;;;;;9.23;4.35;;;;;;;;;;5044537;28;20048;-85
2021/07/30 05:50:18;;;;;;;10.38;5.18;;;;;;;;;;5000393;22;20108;-62
2021/07/30 05:52:46;;;;;;;14.80;4.72;;;;;;;;;;4978616;28;20021;-63
2021/07/30 05:55:15;;;;;;;12.80;4.72;;;;;;;;;;4974327;28;20030;-62
2021/07/30 05:57:43;;;;;;;8.45;4.20;;;;;;;;;;4991076;28;20496;-62
2021/07/30 06:00:09;;;;;;;12.45;4.28;;;;;;;;;;4969704;28;20031;-62
2021/07/30 06:02:37;;;;;;;10.57;4.75;;;;;;;;;;4996376;28;20035;-63
2021/07/30 06:05:03;;;;;;;10.43;4.28;;;;;;;;;;4994045;28;20398;-65
2021/07/30 06:07:31;;;;;;;28.02;5.18;;;;;;;;;;4967675;28;20171;-63
2021/07/30 06:10:00;;;;;;;11.55;4.30;;;;;;;;;;4994727;28;20129;-63
2021/07/30 06:12:25;;;;;;;12.85;3.63;;;;;;;;;;4985178;28;20564;-64
2021/07/30 06:14:51;;;;;;;8.80;4.28;;;;;;;;;;4987869;28;20110;-63
2021/07/30 06:17:16;;;;;;;14.20;4.78;;;;;;;;;;4975723;28;20037;-64
2021/07/30 06:19:42;;;;;;;13.68;4.13;;;;;;;;;;4978096;28;20393;-63
2021/07/30 06:22:11;;;;;;;7.97;3.45;;;;;;;;;;4991715;28;20116;-63
2021/07/30 06:24:39;;;;;;;8.25;4.03;;;;;;;;;;4994448;28;20117;-63
2021/07/30 06:27:05;;;;;;;8.93;3.88;;;;;;;;;;4981240;28;20033;-64
2021/07/30 06:29:33;;;;;;;11.68;3.60;;;;;;;;;;4976490;28;22069;-63
2021/07/30 06:31:59;;;;;;;16.38;4.00;;;;;;;;;;4971955;28;20038;-64
2021/07/30 06:34:25;;;;;;;9.45;3.53;;;;;;;;;;4974684;28;20030;-63
2021/07/30 06:36:55;;;;;;;10.90;3.95;;;;;;;;;;4974937;28;20038;-64
2021/07/30 06:39:21;;;;;;;10.80;3.47;;;;;;;;;;4980980;28;20040;-63
2021/07/30 06:41:46;;;;;;;8.23;2.97;;;;;;;;;;4965973;28;20022;-64
2021/07/30 06:44:12;;;;;;;10.13;3.75;;;;;;;;;;4974536;28;20034;-64
2021/07/30 06:46:37;;;;;;;10.23;3.38;;;;;;;;;;4981435;28;20976;-64
2021/07/30 06:49:05;;;;;;;7.45;3.00;;;;;;;;;;4960715;28;20133;-64
2021/07/30 06:51:31;;;;;;;7.75;3.20;;;;;;;;;;4979838;28;20022;-63
2021/07/30 06:53:56;;;;;;;13.70;3.50;;;;;;;;;;4981676;28;22003;-63
2021/07/30 06:56:22;;;;;;;8.00;3.15;;;;;;;;;;4979647;28;20026;-64
2021/07/30 06:58:47;;;;;;;5.45;2.85;;;;;;;;;;4976956;28;20539;-64
2021/07/30 07:01:13;;;;;;;7.70;3.05;;;;;;;;;;4976902;28;21084;-63
2021/07/30 07:03:39;;;;;;;14.20;3.28;;;;;;;;;;4980007;28;20040;-63
2021/07/30 07:06:05;;;;;;;10.98;3.20;;;;;;;;;;4993394;28;20514;-63
2021/07/30 07:08:30;;;;;;;3.78;2.60;;;;;;;;;;4992991;28;20991;-64
2021/07/30 07:10:56;;;;;;;12.25;3.42;;;;;;;;;;4993723;28;20462;-64
2021/07/30 07:13:24;;;;;;;9.75;3.30;;;;;;;;;;4983045;28;20588;-64
2021/07/30 07:15:50;;;;;;;5.40;2.63;;;;;;;;;;4993197;28;20044;-65
2021/07/30 07:18:15;;;;;;;3.75;2.72;;;;;;;;;;4993865;28;20026;-64
2021/07/30 07:20:41;;;;;;;8.15;3.10;;;;;;;;;;4992767;28;20041;-65
2021/07/30 07:23:07;;;;;;;5.53;2.63;;;;;;;;;;4970995;28;20033;-64
2021/07/30 07:25:33;;;;;;;8.02;2.90;;;;;;;;;;4987927;28;21640;-64
2021/07/30 07:31:34;;;;;;;9.30;3.33;;;;;;;;;;4979321;28;20041;-64
2021/07/30 07:33:59;;;;;;;7.38;3.22;;;;;;;;;;4968492;28;20030;-65
2021/07/30 07:36:28;;;;;;;12.52;3.20;;;;;;;;;;4977527;28;20034;-64
2021/07/30 07:38:54;;;;;;;6.65;2.75;;;;;;;;;;4993494;28;20038;-64
2021/07/30 07:41:22;;;;;;;6.40;2.80;;;;;;;;;;4981212;28;20030;-64
2021/07/30 07:43:47;;;;;;;9.60;3.10;;;;;;;;;;4978925;28;20045;-65
2021/07/30 07:46:15;;;;;;;11.70;3.03;;;;;;;;;;4992629;28;20022;-65
2021/07/30 07:48:41;;;;;;;12.00;3.50;;;;;;;;;;4995605;28;20029;-65
2021/07/30 07:51:06;;;;;;;9.07;2.90;;;;;;;;;;4982515;28;20549;-65
2021/07/30 07:53:32;;;;;;;8.98;2.72;;;;;;;;;;4994109;28;20040;-66
2021/07/30 07:56:04;;;;;;;11.32;3.20;;;;;;;;;;4979822;28;20034;-66
2021/07/30 07:58:31;;;;;;;9.98;3.03;;;;;;;;;;4980443;28;20493;-65
2021/07/30 08:00:56;;;;;;;12.48;3.22;;;;;;;;;;4992470;28;20692;-65
2021/07/30 08:03:22;;;;;;;8.63;2.85;;;;;;;;;;4991754;28;20030;-64
2021/07/30 08:05:47;;;;;;;8.65;3.10;;;;;;;;;;4979031;28;20045;-65
2021/07/30 08:08:15;;;;;;;12.07;3.33;;;;;;;;;;4992915;28;20029;-65
2021/07/30 08:10:40;;;;;;;12.00;3.17;;;;;;;;;;4981136;28;20080;-65
2021/07/30 08:13:06;;;;;;;7.72;3.05;;;;;;;;;;4970326;28;20044;-64
2021/07/30 08:15:32;;;;;;;7.63;3.17;;;;;;;;;;4979345;28;20120;-65
2021/07/30 08:17:57;;;;;;;8.25;2.80;;;;;;;;;;4983728;28;20038;-65
2021/07/30 08:20:25;;;;;;;6.68;3.25;;;;;;;;;;4983248;28;20046;-65
2021/07/30 08:22:51;;;;;;;9.23;3.83;;;;;;;;;;4982366;28;20064;-64
2021/07/30 08:25:16;;;;;;;8.43;3.17;;;;;;;;;;4993613;28;20500;-64
2021/07/30 08:27:42;;;;;;;13.30;3.17;;;;;;;;;;4984841;28;20448;-64
2021/07/30 08:30:08;;;;;;;17.08;3.95;;;;;;;;;;4980074;28;20026;-64
2021/07/30 08:32:34;;;;;;;11.63;3.10;;;;;;;;;;4980278;28;20085;-64
2021/07/30 08:35:02;;;;;;;7.53;2.97;;;;;;;;;;4978338;28;20043;-63
2021/07/30 08:37:28;;;;;;;6.93;3.15;;;;;;;;;;4978293;28;20370;-64
2021/07/30 08:39:56;;;;;;;10.50;3.40;;;;;;;;;;4976447;28;20038;-65
2021/07/30 08:42:24;;;;;;;8.68;3.22;;;;;;;;;;4985676;28;20037;-64
2021/07/30 08:45:02;;;;;;;7.65;2.88;;;;;;;;;;4979673;28;20080;-65
2021/07/30 08:48:02;;;;;;;12.18;3.15;;;;;;;;;;4978796;28;20484;-65
2021/07/30 08:50:29;;;;;;;9.20;3.47;;;;;;;;;;4979452;28;20058;-64
2021/07/30 08:52:56;;;;;;;6.90;2.45;;;;;;;;;;4991064;28;20037;-64
2021/07/30 08:55:31;;;;;;;8.30;3.25;;;;;;;;;;4976147;28;22076;-64
2021/07/30 08:57:56;;;;;;;9.35;3.25;;;;;;;;;;4974809;28;20030;-65
2021/07/30 09:00:24;;;;;;;9.55;3.30;;;;;;;;;;4994109;28;20081;-63
2021/07/30 09:02:50;;;;;;;8.77;2.92;;;;;;;;;;4991469;28;20084;-63
2021/07/30 09:05:31;;;;;;;4.20;2.40;;;;;;;;;;4963585;28;20661;-63
2021/07/30 09:07:59;;;;;;;7.55;3.15;;;;;;;;;;4978083;28;20026;-64
2021/07/30 09:10:30;;;;;;;6.15;2.95;;;;;;;;;;4978840;28;20033;-63
2021/07/30 09:13:15;;;;;;;5.72;2.67;;;;;;;;;;4993714;28;20132;-64
2021/07/30 09:15:41;;;;;;;9.40;3.42;;;;;;;;;;4994358;28;21920;-63
2021/07/30 09:18:08;;;;;;;7.57;3.33;;;;;;;;;;4965892;28;20026;-62
2021/07/30 09:20:33;;;;;;;7.25;2.63;;;;;;;;;;4990001;28;20497;-64
2021/07/30 09:22:59;;;;;;;16.80;4.20;;;;;;;;;;4979320;28;20117;-63
2021/07/30 09:25:37;;;;;;;9.80;3.08;;;;;;;;;;4978561;28;20128;-64
2021/07/30 09:28:05;;;;;;;9.38;3.40;;;;;;;;;;4980035;28;20038;-63
2021/07/30 09:30:31;;;;;;;10.02;2.95;;;;;;;;;;4982101;28;20138;-64
2021/07/30 09:32:56;;;;;;;9.07;2.92;;;;;;;;;;4975880;28;20033;-63
2021/07/30 09:35:25;;;;;;;9.43;2.80;;;;;;;;;;4978906;28;20961;-64
2021/07/30 09:38:11;;;;;;;7.30;2.95;;;;;;;;;;4983175;28;20038;-64
2021/07/30 09:40:36;;;;;;;8.35;2.90;;;;;;;;;;4974207;28;20077;-64
2021/07/30 09:43:23;;;;;;;8.55;2.95;;;;;;;;;;4992909;28;20030;-63
2021/07/30 09:45:49;;;;;;;7.07;2.75;;;;;;;;;;4979273;28;20030;-64
2021/07/30 09:48:15;;;;;;;5.03;2.58;;;;;;;;;;4982168;28;20374;-63
2021/07/30 09:50:41;;;;;;;5.63;2.50;;;;;;;;;;4977927;28;20061;-63
2021/07/30 09:53:09;;;;;;;11.00;2.65;;;;;;;;;;4967605;28;20050;-64
2021/07/30 09:56:08;;;;;;;11.00;2.25;;;;;;;;;;4994360;28;20100;-63
2021/07/30 09:58:35;;;;;;;8.35;2.50;;;;;;;;;;4975022;28;20501;-63
2021/07/30 10:01:01;;;;;;;5.82;2.45;;;;;;;;;;4982398;28;20037;-63
2021/07/30 10:03:26;;;;;;;10.40;2.05;;;;;;;;;;4990754;28;20069;-63
2021/07/30 10:05:53;;;;;;;6.65;2.45;;;;;;;;;;4972797;28;20061;-64
2021/07/30 10:08:20;;;;;;;11.93;2.60;;;;;;;;;;4977288;28;20741;-63
2021/07/30 10:10:46;;;;;;;6.85;2.17;;;;;;;;;;4949548;28;20034;-63
2021/07/30 10:13:18;;;;;;;6.50;2.10;;;;;;;;;;4983179;28;20050;-64
2021/07/30 10:15:44;;;;;;;7.00;2.10;;;;;;;;;;4977713;28;20049;-63
2021/07/30 10:18:11;;;;;;;5.90;1.92;;;;;;;;;;4980073;28;20141;-64
2021/07/30 10:20:37;;;;;;;9.77;2.13;;;;;;;;;;4974479;28;20083;-67
2021/07/30 10:23:04;;;;;;;6.28;2.17;;;;;;;;;;4973303;28;20021;-63
2021/07/30 10:25:51;;;;;;;7.57;2.35;;;;;;;;;;4993539;28;20034;-63
2021/07/30 10:28:24;;;;;;;8.88;2.13;;;;;;;;;;4979374;28;20034;-62
2021/07/30 10:30:57;;;;;;;11.27;2.60;;;;;;;;;;4980315;28;20029;-63
2021/07/30 10:33:32;;;;;;;6.43;2.28;;;;;;;;;;4975938;28;20029;-63
2021/07/30 10:36:02;;;;;;;6.05;2.03;;;;;;;;;;4976448;28;20593;-64
2021/07/30 10:38:27;;;;;;;8.90;2.17;;;;;;;;;;4972302;28;20096;-63
2021/07/30 10:41:08;;;;;;;6.28;2.42;;;;;;;;;;4975150;28;20153;-63
2021/07/30 10:43:51;;;;;;;7.40;2.03;;;;;;;;;;4975689;28;20467;-63
2021/07/30 10:49:52;;;;;;;4.05;1.75;;;;;;;;;;4981228;28;20169;-64
2021/07/30 10:52:27;;;;;;;6.13;1.77;;;;;;;;;;4977171;28;20050;-62
2021/07/30 10:54:56;;;;;;;3.92;1.80;;;;;;;;;;4980777;28;20046;-63
2021/07/30 10:57:40;;;;;;;6.85;2.40;;;;;;;;;;4994552;28;20557;-63
2021/07/30 11:00:07;;;;;;;6.78;1.92;;;;;;;;;;4981098;28;20606;-62
2021/07/30 11:02:54;;;;;;;5.38;1.70;;;;;;;;;;4984098;28;20025;-62
2021/07/30 11:05:20;;;;;;;6.60;2.10;;;;;;;;;;4980529;28;20038;-61
2021/07/30 11:07:50;;;;;;;7.93;1.70;;;;;;;;;;4976054;28;20021;-61
2021/07/30 11:10:16;;;;;;;3.88;1.98;;;;;;;;;;4996734;28;20033;-62
2021/07/30 11:12:45;;;;;;;6.80;2.03;;;;;;;;;;4992964;28;20066;-63
2021/07/30 11:15:12;;;;;;;5.07;1.70;;;;;;;;;;4963366;28;22203;-63
2021/07/30 11:17:38;;;;;;;6.32;2.25;;;;;;;;;;4980894;28;20862;-65
2021/07/30 11:20:04;;;;;;;5.75;2.13;;;;;;;;;;4981257;28;20037;-63
2021/07/30 11:22:29;;;;;;;6.05;2.20;;;;;;;;;;4994785;28;20050;-64
2021/07/30 11:24:55;;;;;;;5.30;2.30;;;;;;;;;;4980876;28;20026;-62
2021/07/30 11:27:24;;;;;;;5.10;2.65;;;;;;;;;;4991342;28;20766;-64
2021/07/30 11:29:50;;;;;;;5.68;1.95;;;;;;;;;;4982067;28;20042;-63
2021/07/30 11:35:38;;;;;;;4.50;1.90;;;;;;;;;;4979361;28;20052;-63
2021/07/30 11:38:04;;;;;;;4.00;1.73;;;;;;;;;;4987909;28;20036;-63
2021/07/30 11:40:31;;;;;;;6.55;1.85;;;;;;;;;;4990889;28;20022;-64
2021/07/30 11:43:07;;;;;;;5.32;1.80;;;;;;;;;;4975217;28;20065;-64
2021/07/30 11:45:32;;;;;;;5.63;1.90;;;;;;;;;;4978180;28;20030;-62
2021/07/30 11:48:00;;;;;;;5.35;1.50;;;;;;;;;;4978256;28;20022;-62
2021/07/30 11:50:27;;;;;;;4.18;1.35;;;;;;;;;;4979670;28;20046;-63
2021/07/30 11:53:02;;;;;;;4.40;1.70;;;;;;;;;;4992024;28;20034;-64
2021/07/30 11:55:30;;;;;;;2.80;1.05;;;;;;;;;;4991539;28;20085;-64
2021/07/30 11:57:56;;;;;;;2.83;1.35;;;;;;;;;;4977712;28;20032;-62
2021/07/30 12:00:23;;;;;;;2.33;1.40;;;;;;;;;;4977322;28;20404;-64
2021/07/30 12:02:49;;;;;;;9.43;2.05;;;;;;;;;;4979460;28;20026;-64
2021/07/30 12:05:14;;;;;;;5.53;1.98;;;;;;;;;;4978265;28;22058;-64
2021/07/30 12:07:40;;;;;;;4.47;1.67;;;;;;;;;;4976790;28;20034;-63
2021/07/30 12:10:07;;;;;;;4.68;1.67;;;;;;;;;;4977841;28;21829;-65
2021/07/30 12:12:38;;;;;;;7.85;1.85;;;;;;;;;;4978092;28;21134;-63
2021/07/30 12:15:04;;;;;;;12.35;3.08;;;;;;;;;;4979512;28;21136;-64
2021/07/30 12:17:32;;;;;;;9.05;2.10;;;;;;;;;;4949939;28;20022;-62
2021/07/30 12:20:04;;;;;;;7.28;2.45;;;;;;;;;;4978909;28;20152;-63
2021/07/30 12:22:38;;;;;;;7.68;2.58;;;;;;;;;;4977257;28;20040;-63
2021/07/30 12:25:04;;;;;;;7.13;2.22;;;;;;;;;;4983301;28;20030;-62
2021/07/30 12:27:29;;;;;;;9.13;2.92;;;;;;;;;;4991506;28;20038;-61
2021/07/30 12:29:58;;;;;;;8.63;3.15;;;;;;;;;;4978990;28;20045;-62
2021/07/30 12:32:24;;;;;;;5.70;2.40;;;;;;;;;;4978589;28;20038;-61
2021/07/30 12:35:12;;;;;;;6.30;1.85;;;;;;;;;;4977910;28;20053;-63
2021/07/30 12:37:58;;;;;;;10.77;2.13;;;;;;;;;;4977071;28;20737;-62
2021/07/30 12:40:23;;;;;;;5.38;2.00;;;;;;;;;;4978442;28;21009;-62
2021/07/30 12:43:06;;;;;;;10.48;2.45;;;;;;;;;;4975895;28;20088;-64
2021/07/30 12:45:38;;;;;;;4.25;1.90;;;;;;;;;;4979649;28;20040;-63
2021/07/30 12:48:03;;;;;;;5.45;2.15;;;;;;;;;;4977529;28;20503;-62
2021/07/30 12:50:35;;;;;;;6.82;2.80;;;;;;;;;;4977386;28;20604;-63
2021/07/30 12:53:10;;;;;;;7.40;2.30;;;;;;;;;;4977467;28;20501;-63
2021/07/30 12:55:57;;;;;;;4.03;2.28;;;;;;;;;;4976404;28;20037;-64
2021/07/30 12:58:31;;;;;;;8.55;1.92;;;;;;;;;;4990234;28;20572;-64
2021/07/30 13:01:00;;;;;;;7.15;2.35;;;;;;;;;;4978890;28;20128;-64
2021/07/30 13:03:28;;;;;;;7.72;2.38;;;;;;;;;;4957262;28;20034;-64
2021/07/30 13:05:57;;;;;;;4.10;1.88;;;;;;;;;;4981493;28;20665;-64
2021/07/30 13:08:24;;;;;;;5.30;2.55;;;;;;;;;;4959551;28;20034;-65
2021/07/30 13:10:51;;;;;;;3.72;1.70;;;;;;;;;;4981154;28;20375;-65
2021/07/30 13:13:22;;;;;;;5.75;2.03;;;;;;;;;;4960703;28;20119;-64
2021/07/30 13:15:50;;;;;;;;;;;;;;;;;;4991225;28;20168;-63
2021/07/30 13:18:16;;;;;;;8.55;1.80;;;;;;;;;;4993146;28;20604;-65
2021/07/30 13:20:49;;;;;;;6.85;2.17;;;;;;;;;;4978244;28;20025;-65
2021/07/30 13:23:17;;;;;;;6.40;1.90;;;;;;;;;;4977794;28;20028;-64
2021/07/30 13:25:49;;;;;;;4.22;1.67;;;;;;;;;;4991350;28;20413;-65
2021/07/30 13:28:18;;;;;;;3.47;1.40;;;;;;;;;;4991660;28;20034;-65
2021/07/30 13:30:44;;;;;;;3.35;1.50;;;;;;;;;;4978450;28;20675;-63
2021/07/30 13:33:10;;;;;;;4.07;1.30;;;;;;;;;;4977369;28;20030;-65
2021/07/30 13:35:36;;;;;;;4.68;1.25;;;;;;;;;;4977397;28;20144;-64
2021/07/30 13:38:05;;;;;;;10.20;1.77;;;;;;;;;;4977401;28;20031;-66
2021/07/30 13:40:33;;;;;;;4.65;1.20;;;;;;;;;;4974287;28;20156;-65
2021/07/30 13:43:05;;;;;;;5.65;1.50;;;;;;;;;;4976077;28;20042;-65
2021/07/30 13:45:36;;;;;;;2.63;1.50;;;;;;;;;;4976160;28;21241;-66
2021/07/30 13:48:04;;;;;;;2.55;1.25;;;;;;;;;;4987627;28;20044;-65
2021/07/30 13:50:30;;;;;;;2.78;1.38;;;;;;;;;;4977882;28;20966;-64
2021/07/30 13:52:55;;;;;;;4.18;1.40;;;;;;;;;;4968437;28;20042;-65
2021/07/30 13:58:59;;;;;;;3.22;1.30;;;;;;;;;;4974510;28;20116;-65
2021/07/30 14:01:44;;;;;;;2.15;1.20;;;;;;;;;;4952632;28;20166;-66
2021/07/30 14:04:12;;;;;;;2.88;1.40;;;;;;;;;;4922657;28;20035;-64
2021/07/30 14:06:37;;;;;;;6.55;1.75;;;;;;;;;;4942457;28;20061;-63
2021/07/30 14:09:03;;;;;;;5.07;1.40;;;;;;;;;;4937133;28;20807;-65
2021/07/30 14:11:31;;;;;;;5.95;2.00;;;;;;;;;;4954845;28;20368;-65
2021/07/30 14:14:33;;;;;;;5.05;1.80;;;;;;;;;;4955380;28;20042;-65
2021/07/30 14:17:00;;;;;;;5.95;1.60;;;;;;;;;;4947959;28;20046;-66
2021/07/30 14:19:25;;;;;;;3.70;1.40;;;;;;;;;;4935560;28;20991;-65
2021/07/30 14:21:54;;;;;;;4.45;1.30;;;;;;;;;;4941628;28;20043;-64
2021/07/30 14:24:44;;;;;;;3.75;1.60;;;;;;;;;;4940131;28;20042;-65
2021/07/30 14:27:10;;;;;;;6.95;2.05;;;;;;;;;;4948400;28;20066;-65
2021/07/30 14:29:36;;;;;;;2.13;1.48;;;;;;;;;;4933470;28;20053;-65
2021/07/30 14:32:05;;;;;;;5.28;1.52;;;;;;;;;;4957857;28;22063;-64
2021/07/30 14:34:31;;;;;;;2.35;1.50;;;;;;;;;;4979514;28;20026;-64
2021/07/30 14:36:56;;;;;;;3.08;1.42;;;;;;;;;;4970353;28;20037;-63
2021/07/30 14:39:25;;;;;;;2.60;1.65;;;;;;;;;;4995434;28;20039;-63
2021/07/30 14:41:51;;;;;;;3.28;1.83;;;;;;;;;;4984965;28;20066;-64
2021/07/30 14:44:19;;;;;;;5.72;2.00;;;;;;;;;;4984828;28;20141;-64
2021/07/30 14:46:44;;;;;;;9.55;2.28;;;;;;;;;;4995701;28;20038;-64
2021/07/30 14:52:13;;;;;;;4.72;1.73;;;;;;;;;;4995805;28;20054;-64
2021/07/30 14:54:41;;;;;;;7.30;2.05;;;;;;;;;;4981818;28;20091;-63
2021/07/30 14:57:09;;;;;;;4.03;1.73;;;;;;;;;;4976819;28;21002;-65
2021/07/30 14:59:35;;;;;;;2.35;1.55;;;;;;;;;;4969374;28;20035;-65